Time;durP1;ratioP1;P1;durP2;ratioP2;P2;SDS_P1;SDS_P2;PMS_P1;PMS_P2;Temp;Humidity;BMP_temperature;BMP_pressure;BME280_temperature;BME280_humidity;BME280_pressure;Samples;Min_cycle;Max_cycle;Signal;HPM_P1;HPM_P2
2022/03/09 00:00:13;;;;;;;34.40;16.70;;;;;;;-2.62;100.00;61734.34;5044960;28;20206;-76
2022/03/09 00:02:40;;;;;;;33.08;17.13;;;;;;;-2.73;100.00;61720.63;5039745;28;20236;-75
2022/03/09 00:05:08;;;;;;;35.53;17.17;;;;;;;-2.62;100.00;61731.88;5045047;28;20198;-76
2022/03/09 00:07:35;;;;;;;36.92;19.67;;;;;;;-2.49;100.00;61748.16;5045157;28;20214;-76
2022/03/09 00:10:04;;;;;;;32.80;16.80;;;;;;;-2.52;100.00;61745.09;5044510;28;20244;-76
2022/03/09 00:12:31;;;;;;;28.20;15.52;;;;;;;-2.53;100.00;61738.56;5038178;28;20218;-76
2022/03/09 00:14:58;;;;;;;27.15;16.25;;;;;;;-2.53;100.00;61741.59;5025087;28;20203;-76
2022/03/09 00:17:25;;;;;;;26.52;16.13;;;;;;;-2.54;100.00;61735.56;5031974;28;20230;-76
2022/03/09 00:19:52;;;;;;;28.27;16.55;;;;;;;-2.53;100.00;61741.59;5043731;28;20557;-76
2022/03/09 00:22:19;;;;;;;27.08;14.82;;;;;;;-2.66;100.00;61725.78;5043942;28;20279;-76
2022/03/09 00:24:46;;;;;;;28.40;15.60;;;;;;;-2.56;100.00;61736.03;5038667;28;20213;-76
2022/03/09 00:27:14;;;;;;;28.42;15.02;;;;;;;-2.69;100.00;61725.22;5044794;28;20218;-76
2022/03/09 00:29:42;;;;;;;32.15;16.95;;;;;;;-2.63;100.00;61733.84;5045855;28;20210;-76
2022/03/09 00:32:09;;;;;;;28.63;16.67;;;;;;;-2.68;100.00;61728.22;5039926;28;20405;-77
2022/03/09 00:34:36;;;;;;;29.10;15.45;;;;;;;-2.65;100.00;61736.28;5025955;28;20206;-77
2022/03/09 00:37:03;;;;;;;26.10;16.13;;;;;;;-2.62;100.00;61727.41;5024965;28;20218;-77
2022/03/09 00:39:30;;;;;;;27.23;15.52;;;;;;;-2.72;100.00;61729.63;5035137;28;20198;-76
2022/03/09 00:41:57;;;;;;;29.05;16.23;;;;;;;-2.73;100.00;61721.16;5036307;28;20241;-77
2022/03/09 00:44:25;;;;;;;32.90;16.17;;;;;;;-2.64;100.00;61732.81;5029394;28;20190;-76
2022/03/09 00:46:52;;;;;;;24.45;15.35;;;;;;;-2.70;100.00;61729.19;5044655;28;20272;-76
2022/03/09 00:49:19;;;;;;;28.05;15.40;;;;;;;-2.62;100.00;61731.88;5029895;28;20210;-76
2022/03/09 00:51:46;;;;;;;27.17;15.48;;;;;;;-2.58;100.00;61735.97;5041696;28;20218;-75
2022/03/09 00:54:12;;;;;;;33.38;16.58;;;;;;;-2.60;100.00;61733.91;5045006;28;20236;-77
2022/03/09 00:56:40;;;;;;;34.05;17.85;;;;;;;-2.60;100.00;61734.44;5044888;28;20577;-75
2022/03/09 00:59:06;;;;;;;27.33;15.88;;;;;;;-2.67;100.00;61729.25;5045238;28;20201;-76
2022/03/09 01:01:35;;;;;;;27.85;14.82;;;;;;;-2.63;100.00;61730.84;5029419;28;20226;-76
2022/03/09 01:04:02;;;;;;;31.90;16.35;;;;;;;-2.63;100.00;61733.34;5041978;28;20205;-77
2022/03/09 01:06:29;;;;;;;27.15;14.18;;;;;;;-2.64;100.00;61732.81;5043620;28;20241;-76
2022/03/09 01:08:57;;;;;;;27.52;14.73;;;;;;;-2.71;100.00;61728.16;5045751;28;20202;-76
2022/03/09 01:11:24;;;;;;;27.85;15.73;;;;;;;-2.73;100.00;61718.66;5039245;28;20221;-77
2022/03/09 01:13:51;;;;;;;26.38;16.33;;;;;;;-2.71;100.00;61722.69;5037768;28;20198;-78
2022/03/09 01:16:18;;;;;;;34.70;15.70;;;;;;;-2.69;100.00;61724.72;5044592;28;20260;-77
2022/03/09 01:18:46;;;;;;;23.85;13.80;;;;;;;-2.74;100.00;61719.59;5044344;28;20194;-76
2022/03/09 01:21:13;;;;;;;28.83;15.57;;;;;;;-2.85;100.00;61703.91;5043714;28;20256;-76
2022/03/09 01:23:40;;;;;;;30.10;15.52;;;;;;;-2.74;100.00;61719.59;5040603;28;20244;-76
2022/03/09 01:26:06;;;;;;;28.20;14.85;;;;;;;-2.69;100.00;61727.72;5047907;28;20197;-77
2022/03/09 01:28:33;;;;;;;24.50;14.90;;;;;;;-2.64;100.00;61729.84;5047318;28;20426;-76
2022/03/09 01:31:00;;;;;;;27.15;14.93;;;;;;;-2.59;100.00;61730.47;5046993;28;20202;-76
2022/03/09 01:33:28;;;;;;;30.85;15.70;;;;;;;-2.65;100.00;61728.81;5044407;28;20225;-76
2022/03/09 01:35:56;;;;;;;31.63;16.63;;;;;;;-2.60;100.00;61734.44;5047144;28;20198;-76
2022/03/09 01:38:23;;;;;;;30.13;15.18;;;;;;;-2.76;100.00;61713.09;5049534;28;20249;-78
2022/03/09 01:40:50;;;;;;;25.73;15.43;;;;;;;-2.64;100.00;61732.31;5051201;28;20220;-76
2022/03/09 01:43:18;;;;;;;28.67;15.38;;;;;;;-2.66;100.00;61725.28;5055115;28;20217;-76
2022/03/09 01:45:45;;;;;;;31.08;14.75;;;;;;;-2.73;100.00;61720.63;5036540;28;20268;-77
2022/03/09 01:48:12;;;;;;;22.88;11.60;;;;;;;-2.66;100.00;61725.28;5031404;28;20219;-76
2022/03/09 01:50:39;;;;;;;26.33;14.43;;;;;;;-2.65;100.00;61731.28;5028108;28;20198;-76
2022/03/09 01:53:07;;;;;;;29.35;15.25;;;;;;;-2.58;100.00;61735.97;5037770;28;20260;-76
2022/03/09 01:55:34;;;;;;;24.85;14.82;;;;;;;-2.63;100.00;61733.84;5045159;28;20202;-76
2022/03/09 01:58:01;;;;;;;31.42;17.02;;;;;;;-2.59;100.00;61737.44;5044577;28;20287;-77
2022/03/09 02:00:28;;;;;;;34.42;17.23;;;;;;;-2.57;100.00;61735.00;5037861;28;20206;-77
2022/03/09 02:02:55;;;;;;;27.05;15.65;;;;;;;-2.50;100.00;61746.63;5045863;28;20236;-77
2022/03/09 02:05:22;;;;;;;33.35;16.90;;;;;;;-2.55;100.00;61736.53;5041898;28;20197;-76
2022/03/09 02:10:35;;;;;;;27.77;15.35;;;;;;;-2.55;100.00;61739.03;5041707;28;20204;-77
2022/03/09 02:13:02;;;;;;;23.30;15.00;;;;;;;-2.58;100.00;61731.50;5045736;28;20372;-76
2022/03/09 02:15:29;;;;;;;24.13;13.88;;;;;;;-2.48;100.00;61746.69;5046087;28;20208;-77
2022/03/09 02:17:59;;;;;;;26.15;13.73;;;;;;;-2.54;100.00;61742.53;5007458;28;1137665;-77
2022/03/09 02:20:26;;;;;;;29.20;16.13;;;;;;;-2.36;100.00;61758.44;5045175;28;20662;-77
2022/03/09 02:22:55;;;;;;;32.55;14.35;;;;;;;-2.38;100.00;61756.41;5045955;28;20233;-76
2022/03/09 02:25:22;;;;;;;28.92;16.05;;;;;;;-2.35;100.00;61754.50;5047041;28;20209;-76
2022/03/09 02:27:49;;;;;;;29.85;16.08;;;;;;;-2.26;100.00;61770.66;5046031;28;20233;-76
2022/03/09 02:30:19;;;;;;;30.45;16.48;;;;;;;-2.33;100.00;61758.50;5046223;28;20202;-77
2022/03/09 02:32:47;;;;;;;28.20;16.27;;;;;;;-2.38;100.00;61753.91;5046469;28;20226;-77
2022/03/09 02:35:16;;;;;;;30.75;15.93;;;;;;;-2.30;100.00;61766.56;5045320;28;20463;-76
2022/03/09 02:37:43;;;;;;;31.33;16.45;;;;;;;-2.42;100.00;61750.31;5045286;28;20232;-77
2022/03/09 02:40:14;;;;;;;32.70;16.10;;;;;;;-2.40;100.00;61756.84;5047539;28;20240;-76
2022/03/09 02:42:42;;;;;;;28.33;15.88;;;;;;;-2.34;100.00;61760.50;5046438;28;20327;-77
2022/03/09 02:45:11;;;;;;;34.60;17.55;;;;;;;-2.56;100.00;61738.53;5052348;28;20194;-77
2022/03/09 02:47:40;;;;;;;35.20;16.95;;;;;;;-2.50;100.00;61742.16;5055308;28;20241;-77
2022/03/09 02:50:08;;;;;;;30.65;15.98;;;;;;;-2.45;100.00;61752.25;5050596;28;20265;-77
2022/03/09 02:52:38;;;;;;;29.10;16.80;;;;;;;-2.39;100.00;61758.38;5047134;28;20220;-76
2022/03/09 02:55:05;;;;;;;30.95;17.33;;;;;;;-2.40;100.00;61759.84;5045521;28;20268;-77
2022/03/09 02:57:34;;;;;;;32.95;16.92;;;;;;;-2.64;100.00;61729.84;5027122;28;20218;-76
2022/03/09 03:00:01;;;;;;;31.27;16.15;;;;;;;-2.86;100.00;61707.84;5031285;28;20190;-76
2022/03/09 03:02:28;;;;;;;28.27;15.55;;;;;;;-2.79;100.00;61715.00;5047072;28;20260;-76
2022/03/09 03:04:54;;;;;;;30.77;16.83;;;;;;;-2.86;100.00;61709.81;5044381;28;20260;-77
2022/03/09 03:07:21;;;;;;;35.70;17.33;;;;;;;-2.82;100.00;61713.91;5046855;28;20253;-77
2022/03/09 03:09:48;;;;;;;31.50;16.75;;;;;;;-2.85;100.00;61710.88;5045878;28;20202;-76
2022/03/09 03:12:15;;;;;;;28.75;14.90;;;;;;;-2.70;100.00;61718.72;5044958;28;20222;-77
2022/03/09 03:14:43;;;;;;;24.73;13.43;;;;;;;-2.73;100.00;61728.63;5044939;28;20210;-77
2022/03/09 03:17:10;;;;;;;26.25;14.88;;;;;;;-2.85;100.00;61711.38;5045849;28;20225;-76
2022/03/09 03:19:37;;;;;;;31.05;15.40;;;;;;;-2.88;100.00;61705.81;5045733;28;20208;-76
2022/03/09 03:22:04;;;;;;;27.77;14.68;;;;;;;-2.89;100.00;61707.28;5043377;28;20279;-76
2022/03/09 03:24:31;;;;;;;27.95;15.73;;;;;;;-2.89;100.00;61704.28;5045073;28;20217;-75
2022/03/09 03:26:58;;;;;;;33.10;18.00;;;;;;;-2.89;100.00;61702.31;5048252;28;20240;-75
2022/03/09 03:29:25;;;;;;;28.35;16.00;;;;;;;-2.88;100.00;61703.31;5049946;28;20205;-76
2022/03/09 03:31:53;;;;;;;29.80;15.70;;;;;;;-2.98;100.00;61697.56;5046065;28;20546;-76
2022/03/09 03:34:20;;;;;;;30.45;16.75;;;;;;;-2.87;100.00;61703.84;5047777;28;20261;-76
2022/03/09 03:36:47;;;;;;;29.20;14.57;;;;;;;-2.87;100.00;61701.88;5047984;28;20230;-75
2022/03/09 03:39:14;;;;;;;31.48;16.35;;;;;;;-2.84;100.00;61711.88;5048236;28;20206;-77
2022/03/09 03:41:41;;;;;;;33.60;16.40;;;;;;;-2.86;100.00;61710.34;5042385;28;20221;-75
2022/03/09 03:44:08;;;;;;;35.63;16.25;;;;;;;-2.94;100.00;61696.69;5046111;28;20193;-76
2022/03/09 03:46:35;;;;;;;29.08;15.95;;;;;;;-2.99;100.00;61689.59;5049381;28;20256;-76
2022/03/09 03:49:04;;;;;;;25.10;15.30;;;;;;;-3.00;100.00;61696.03;5049983;28;20518;-76
2022/03/09 03:51:32;;;;;;;27.02;15.82;;;;;;;-3.09;100.00;61681.84;5048590;28;20221;-77
2022/03/09 03:53:59;;;;;;;24.92;13.55;;;;;;;-3.00;100.00;61700.53;5048671;28;20224;-76
2022/03/09 03:56:26;;;;;;;31.23;16.27;;;;;;;-2.96;100.00;61697.63;5049289;28;20190;-76
2022/03/09 03:58:52;;;;;;;27.17;14.90;;;;;;;-3.04;100.00;61689.47;5047394;28;20202;-77
2022/03/09 04:01:19;;;;;;;30.08;16.30;;;;;;;-3.10;100.00;61680.34;5047204;28;20198;-77
2022/03/09 04:03:46;;;;;;;31.55;15.77;;;;;;;-3.09;100.00;61686.84;5031482;28;20199;-77
2022/03/09 04:06:14;;;;;;;26.98;15.27;;;;;;;-3.04;100.00;61686.97;5027675;28;20203;-77
2022/03/09 04:08:42;;;;;;;29.60;16.48;;;;;;;-3.00;100.00;61698.03;5037183;28;20202;-77
2022/03/09 04:11:08;;;;;;;23.13;13.48;;;;;;;-3.07;100.00;61686.41;5050451;28;20193;-77
2022/03/09 04:13:35;;;;;;;25.83;15.18;;;;;;;-2.98;100.00;61692.59;5054592;28;20313;-77
2022/03/09 04:16:02;;;;;;;29.05;15.50;;;;;;;-3.02;100.00;61698.97;5055573;28;20206;-76
2022/03/09 04:18:29;;;;;;;29.75;14.82;;;;;;;-2.95;99.97;61698.16;5046137;28;20230;-76
2022/03/09 04:20:56;;;;;;;28.83;13.75;;;;;;;-3.00;99.83;61695.53;5054564;28;20206;-78
2022/03/09 04:23:24;;;;;;;30.63;16.23;;;;;;;-3.02;100.00;61696.47;5055491;28;20226;-76
2022/03/09 04:25:51;;;;;;;23.05;14.23;;;;;;;-2.98;100.00;61703.06;5048790;28;20499;-77
2022/03/09 04:28:18;;;;;;;30.08;15.00;;;;;;;-3.05;100.00;61687.94;5048060;28;20218;-77
2022/03/09 04:30:45;;;;;;;27.92;15.90;;;;;;;-3.09;100.00;61689.31;5042171;28;20199;-76
2022/03/09 04:33:12;;;;;;;28.92;16.38;;;;;;;-3.00;100.00;61690.56;5027249;28;20290;-76
2022/03/09 04:35:39;;;;;;;29.30;15.68;;;;;;;-3.03;100.00;61689.97;5047274;28;20650;-76
2022/03/09 04:38:06;;;;;;;30.60;16.00;;;;;;;-2.96;99.99;61697.63;5048900;28;20272;-75
2022/03/09 04:40:34;;;;;;;25.90;13.65;;;;;;;-2.95;99.29;61703.13;5046843;28;20202;-77
2022/03/09 04:43:01;;;;;;;27.08;15.15;;;;;;;-3.04;99.63;61689.47;5048618;28;20234;-76
2022/03/09 04:45:28;;;;;;;31.40;15.82;;;;;;;-3.09;100.00;61686.34;5044585;28;20217;-76
2022/03/09 04:47:54;;;;;;;24.13;13.77;;;;;;;-3.12;100.00;61681.28;5040937;28;20229;-76
2022/03/09 04:50:22;;;;;;;23.40;15.35;;;;;;;-3.27;100.00;61660.47;5037165;28;20209;-76
2022/03/09 04:52:48;;;;;;;33.60;15.50;;;;;;;-3.20;100.00;61680.06;5045370;28;20226;-77
2022/03/09 04:55:15;;;;;;;28.23;15.07;;;;;;;-3.08;100.00;61684.88;5037274;28;20271;-76
2022/03/09 04:57:44;;;;;;;29.50;16.05;;;;;;;-2.95;100.00;61698.66;5044283;28;20218;-76
2022/03/09 05:00:11;;;;;;;30.30;16.77;;;;;;;-2.90;100.00;61703.25;5031633;28;20198;-77
2022/03/09 05:02:39;;;;;;;27.73;16.25;;;;;;;-2.86;100.00;61705.38;5036287;28;20257;-75
2022/03/09 05:05:07;;;;;;;28.98;14.77;;;;;;;-2.85;100.00;61708.88;5042634;28;20202;-78
2022/03/09 05:07:35;;;;;;;36.75;17.08;;;;;;;-2.80;100.00;61715.97;5044304;28;20249;-76
2022/03/09 05:10:02;;;;;;;29.23;15.90;;;;;;;-2.65;100.00;61724.34;5045716;28;20194;-76
2022/03/09 05:12:30;;;;;;;27.30;15.45;;;;;;;-2.54;100.00;61743.03;5039527;28;20284;-77
2022/03/09 05:14:58;;;;;;;34.60;18.63;;;;;;;-2.48;99.67;61753.66;5043488;28;20221;-76
2022/03/09 05:17:25;;;;;;;30.77;14.70;;;;;;;-2.61;100.00;61732.91;5043793;28;20268;-76
2022/03/09 05:19:52;;;;;;;26.92;15.63;;;;;;;-2.69;98.93;61727.19;5043798;28;20460;-77
2022/03/09 05:22:19;;;;;;;27.45;14.18;;;;;;;-3.03;100.00;61690.50;5042081;28;20284;-77
2022/03/09 05:24:46;;;;;;;31.67;16.13;;;;;;;-3.52;100.00;61647.91;5044932;28;20201;-75
2022/03/09 05:27:12;;;;;;;37.10;18.42;;;;;;;-3.22;100.00;61668.06;5045240;28;20225;-76
2022/03/09 05:29:39;;;;;;;29.55;16.15;;;;;;;-3.00;100.00;61693.06;5044622;28;20198;-75
2022/03/09 05:32:08;;;;;;;31.77;15.40;;;;;;;-2.93;100.00;61700.69;5021774;28;20236;-75
2022/03/09 05:34:35;;;;;;;30.35;16.15;;;;;;;-2.84;100.00;61707.41;5021015;28;20207;-76
2022/03/09 05:37:03;;;;;;;28.30;17.15;;;;;;;-2.76;100.00;61718.06;5022207;28;20211;-77
2022/03/09 05:39:30;;;;;;;26.38;13.90;;;;;;;-2.88;99.10;61700.81;5022886;28;20238;-77
2022/03/09 05:41:56;;;;;;;26.15;15.23;;;;;;;-2.83;99.32;61713.41;5021956;28;20222;-77
2022/03/09 05:44:23;;;;;;;29.25;16.02;;;;;;;-2.71;99.22;61725.66;5008218;28;20233;-78
2022/03/09 05:46:50;;;;;;;30.08;16.17;;;;;;;-2.82;99.20;61711.44;5023894;28;20222;-76
2022/03/09 05:49:18;;;;;;;30.23;17.25;;;;;;;-2.71;99.16;61725.66;5021694;28;20222;-76
2022/03/09 05:51:45;;;;;;;24.15;14.68;;;;;;;-2.58;98.84;61735.97;5019744;28;20227;-76
2022/03/09 05:54:12;;;;;;;30.80;17.17;;;;;;;-2.50;97.79;61744.66;5004773;28;20207;-75
2022/03/09 05:56:39;;;;;;;27.33;15.85;;;;;;;-2.49;97.39;61743.19;5004651;28;20231;-76
2022/03/09 05:59:06;;;;;;;27.63;15.40;;;;;;;-2.36;96.88;61760.94;5014726;28;20496;-76
2022/03/09 06:01:33;;;;;;;28.38;15.88;;;;;;;-2.31;96.13;61763.06;5023197;28;20190;-76
2022/03/09 06:04:02;;;;;;;27.25;14.35;;;;;;;-2.22;95.67;61774.72;5019056;28;20300;-75
2022/03/09 06:06:31;;;;;;;29.20;16.30;;;;;;;-2.16;94.95;61778.38;5012723;28;20282;-75
2022/03/09 06:08:58;;;;;;;27.55;14.52;;;;;;;-2.09;94.71;61786.06;5021373;28;20399;-76
2022/03/09 06:11:25;;;;;;;28.17;15.52;;;;;;;-2.19;94.59;61777.81;5027234;28;20253;-75
2022/03/09 06:13:52;;;;;;;26.10;15.68;;;;;;;-2.16;95.06;61778.38;5028082;28;20269;-75
2022/03/09 06:16:19;;;;;;;24.20;13.32;;;;;;;-2.13;95.06;61776.47;5024289;28;20218;-76
2022/03/09 06:18:47;;;;;;;27.58;14.10;;;;;;;-2.07;94.79;61788.09;5025070;28;20210;-76
2022/03/09 06:21:14;;;;;;;26.08;14.63;;;;;;;-2.13;94.51;61781.97;5026850;28;20198;-76
2022/03/09 06:23:43;;;;;;;25.98;14.85;;;;;;;-2.02;93.92;61787.72;5027001;28;20230;-75
2022/03/09 06:26:10;;;;;;;27.52;14.57;;;;;;;-2.07;93.46;61788.09;5023283;28;20495;-75
2022/03/09 06:28:37;;;;;;;29.58;15.93;;;;;;;-2.22;93.95;61777.75;5026951;28;20231;-76
2022/03/09 06:31:04;;;;;;;27.30;14.85;;;;;;;-2.19;94.72;61772.84;5026919;28;20550;-75
2022/03/09 06:33:30;;;;;;;23.38;14.07;;;;;;;-2.59;95.39;61734.94;5026434;28;20219;-74
2022/03/09 06:35:57;;;;;;;30.17;16.20;;;;;;;-3.14;97.82;61681.72;5025489;28;20199;-76
2022/03/09 06:38:24;;;;;;;27.58;15.20;;;;;;;-3.06;99.25;61694.91;5025044;28;20578;-76
2022/03/09 06:40:52;;;;;;;28.67;16.98;;;;;;;-2.70;98.98;61733.66;5025215;28;20203;-75
2022/03/09 06:43:19;;;;;;;27.30;14.25;;;;;;;-2.57;98.94;61732.50;5024554;28;20242;-75
2022/03/09 06:45:46;;;;;;;32.08;15.13;;;;;;;-2.25;97.95;61767.19;5026376;28;20221;-75
2022/03/09 06:48:13;;;;;;;21.98;12.98;;;;;;;-2.52;96.40;61749.56;5025707;28;20257;-76
2022/03/09 06:50:40;;;;;;;28.80;16.00;;;;;;;-2.65;97.88;61738.78;5027181;28;20257;-76
2022/03/09 06:53:07;;;;;;;27.08;15.77;;;;;;;-2.21;96.84;61776.28;5036940;28;20215;-75
2022/03/09 06:55:34;;;;;;;28.25;14.05;;;;;;;-1.98;95.53;61799.28;5037468;28;20222;-76
2022/03/09 06:58:03;;;;;;;28.25;15.43;;;;;;;-1.74;92.41;61829.34;5034019;28;20224;-76
2022/03/09 07:00:30;;;;;;;26.00;14.40;;;;;;;-2.06;92.54;61784.13;5032007;28;20463;-76
2022/03/09 07:02:57;;;;;;;23.25;13.38;;;;;;;-1.83;92.17;61814.63;5028272;28;20234;-75
2022/03/09 07:05:24;;;;;;;30.77;16.00;;;;;;;-1.66;91.51;61827.53;5027622;28;20221;-76
2022/03/09 07:07:51;;;;;;;19.50;12.50;;;;;;;-1.42;89.69;61856.56;5025594;28;20218;-76
2022/03/09 07:10:18;;;;;;;27.77;14.80;;;;;;;-1.59;89.16;61831.69;5027331;28;20212;-75
2022/03/09 07:12:47;;;;;;;28.08;14.35;;;;;;;-1.44;89.96;61850.06;5026660;28;20527;-75
2022/03/09 07:15:16;;;;;;;25.38;13.48;;;;;;;-1.14;89.15;61882.75;5026918;28;20226;-75
2022/03/09 07:17:43;;;;;;;27.45;15.63;;;;;;;-1.62;90.14;61829.13;5023625;28;20227;-75
2022/03/09 07:20:11;;;;;;;24.10;14.18;;;;;;;-1.17;88.88;61879.16;5025922;28;20206;-76
2022/03/09 07:22:38;;;;;;;27.25;14.90;;;;;;;-0.85;87.19;61914.94;5024865;28;20223;-75
2022/03/09 07:25:06;;;;;;;29.00;15.65;;;;;;;-0.58;86.13;61937.56;5023476;28;20241;-76
2022/03/09 07:27:33;;;;;;;25.73;15.10;;;;;;;-1.02;85.60;61895.03;5023426;28;20231;-75
2022/03/09 07:30:00;;;;;;;26.20;15.50;;;;;;;-0.81;86.81;61916.50;5025837;28;20206;-75
2022/03/09 07:32:28;;;;;;;26.88;14.35;;;;;;;-0.28;85.26;61973.31;5028315;28;20226;-75
2022/03/09 07:34:56;;;;;;;25.45;14.75;;;;;;;-0.50;83.54;61948.25;5026994;28;20225;-77
2022/03/09 07:37:23;;;;;;;30.70;16.13;;;;;;;-0.65;87.74;61932.38;5024285;28;20257;-75
2022/03/09 07:39:49;;;;;;;23.63;12.85;;;;;;;-0.77;86.20;61920.63;5024486;28;20198;-76
2022/03/09 07:42:17;;;;;;;26.98;13.63;;;;;;;-1.06;86.44;61887.91;5025599;28;20542;-77
2022/03/09 07:44:44;;;;;;;27.50;15.48;;;;;;;-1.42;87.15;61851.59;5025985;28;20273;-74
2022/03/09 07:47:10;;;;;;;24.42;14.85;;;;;;;-0.98;87.42;61899.09;5023771;28;20219;-75
2022/03/09 07:49:39;;;;;;;21.13;12.85;;;;;;;-1.01;85.91;61895.53;5025985;28;20504;-75
2022/03/09 07:52:07;;;;;;;24.70;13.63;;;;;;;-1.16;86.38;61880.69;5024065;28;20285;-76
2022/03/09 07:54:34;;;;;;;30.85;14.25;;;;;;;-1.24;86.97;61873.00;5007009;28;20205;-75
2022/03/09 07:57:02;;;;;;;25.40;13.80;;;;;;;-0.84;86.44;61910.44;5018272;28;20455;-77
2022/03/09 07:59:29;;;;;;;25.73;14.68;;;;;;;-0.17;86.00;61982.06;5025192;28;20562;-76
2022/03/09 08:01:56;;;;;;;24.70;13.02;;;;;;;0.25;80.93;62024.06;5024408;28;20284;-75
2022/03/09 08:04:24;;;;;;;20.83;12.43;;;;;;;0.03;77.25;62002.56;5026069;28;20234;-77
2022/03/09 08:06:54;;;;;;;24.77;13.95;;;;;;;0.02;77.81;61998.50;5024574;28;20222;-77
2022/03/09 08:09:22;;;;;;;26.17;13.25;;;;;;;-0.49;81.45;61946.28;5025630;28;20376;-77
2022/03/09 08:11:48;;;;;;;18.60;11.38;;;;;;;-0.72;81.11;61925.72;5023441;28;20222;-77
2022/03/09 08:14:16;;;;;;;22.48;13.82;;;;;;;-0.84;81.95;61918.44;5026306;28;20355;-77
2022/03/09 08:16:43;;;;;;;15.90;9.93;;;;;;;-0.87;81.71;61910.38;5029205;28;20269;-77
2022/03/09 08:19:10;;;;;;;24.67;13.90;;;;;;;-0.74;82.16;61920.69;5029797;28;20218;-78
2022/03/09 08:21:37;;;;;;;29.00;13.93;;;;;;;-1.13;83.26;61881.25;5022050;28;20230;-77
2022/03/09 08:24:07;;;;;;;23.88;14.15;;;;;;;-0.71;83.86;61928.75;5025485;28;20441;-77
2022/03/09 08:26:34;;;;;;;23.02;13.77;;;;;;;-0.63;82.12;61936.94;5023645;28;20226;-77
2022/03/09 08:29:01;;;;;;;24.52;14.57;;;;;;;0.07;79.21;62008.13;5018352;28;20202;-77
2022/03/09 08:31:28;;;;;;;24.85;13.40;;;;;;;0.73;75.71;62076.31;5022805;28;20199;-76
2022/03/09 08:33:55;;;;;;;37.28;13.60;;;;;;;1.34;71.30;62137.84;5029259;28;20531;-77
2022/03/09 08:36:22;;;;;;;24.20;14.27;;;;;;;1.33;71.47;62134.34;5029272;28;20430;-76
2022/03/09 08:38:49;;;;;;;27.67;15.73;;;;;;;1.54;71.80;62153.34;5023775;28;20202;-77
2022/03/09 08:41:17;;;;;;;18.25;11.57;;;;;;;1.04;69.41;62108.09;5024922;28;20237;-77
2022/03/09 08:43:44;;;;;;;27.75;15.35;;;;;;;0.47;75.30;62044.13;5024756;28;20227;-76
2022/03/09 08:46:12;;;;;;;26.88;16.38;;;;;;;1.15;73.69;62121.38;5022591;28;20211;-75
2022/03/09 08:48:39;;;;;;;24.88;13.55;;;;;;;1.49;70.60;62158.78;5024415;28;20218;-76
2022/03/09 08:51:07;;;;;;;25.67;15.65;;;;;;;1.18;73.13;62117.47;5024524;28;20222;-74
2022/03/09 08:53:34;;;;;;;27.10;15.40;;;;;;;0.87;74.43;62090.16;5023735;28;20219;-75
2022/03/09 08:56:02;;;;;;;28.40;15.52;;;;;;;0.76;74.84;62084.38;5024071;28;20237;-75
2022/03/09 08:58:30;;;;;;;31.75;16.80;;;;;;;1.00;77.08;62104.00;5022973;28;20222;-74
2022/03/09 09:00:57;;;;;;;28.35;15.07;;;;;;;1.19;74.75;62123.00;5023424;28;20364;-74
2022/03/09 09:03:24;;;;;;;28.65;15.52;;;;;;;0.79;71.38;62077.47;5017687;28;20234;-74
2022/03/09 09:05:52;;;;;;;23.55;14.88;;;;;;;1.28;71.86;62127.19;5023053;28;20209;-73
2022/03/09 09:08:18;;;;;;;28.50;15.18;;;;;;;1.58;68.91;62159.97;5018522;28;20221;-73
2022/03/09 09:10:45;;;;;;;27.90;15.95;;;;;;;1.17;72.19;62118.44;5024620;28;20234;-74
2022/03/09 09:13:12;;;;;;;28.13;15.20;;;;;;;1.04;73.15;62105.06;5028507;28;20261;-73
2022/03/09 09:15:41;;;;;;;31.23;16.33;;;;;;;0.72;74.36;62072.78;5029484;28;20504;-75
2022/03/09 09:18:08;;;;;;;30.67;16.20;;;;;;;0.75;75.46;62077.84;5026268;28;20296;-74
2022/03/09 09:20:36;;;;;;;27.63;15.77;;;;;;;1.04;74.29;62105.59;5026138;28;20241;-75
2022/03/09 09:23:04;;;;;;;28.95;17.38;;;;;;;1.42;73.76;62139.06;5028692;28;20227;-75
2022/03/09 09:25:31;;;;;;;25.38;13.90;;;;;;;0.96;74.47;62099.91;5027911;28;20205;-75
2022/03/09 09:27:59;;;;;;;25.35;13.73;;;;;;;0.70;74.67;62070.72;5035019;28;20206;-75
2022/03/09 09:30:27;;;;;;;30.65;14.57;;;;;;;0.26;75.66;62020.09;5032966;28;20237;-75
2022/03/09 09:32:55;;;;;;;24.15;14.80;;;;;;;0.38;76.25;62037.41;5029875;28;20275;-76
2022/03/09 09:35:23;;;;;;;32.63;16.52;;;;;;;0.49;76.93;62051.69;5025836;28;20198;-75
2022/03/09 09:37:51;;;;;;;28.80;15.45;;;;;;;0.60;75.64;62059.97;5024894;28;20394;-76
2022/03/09 09:40:17;;;;;;;25.13;15.05;;;;;;;0.92;76.97;62095.28;5024114;28;20199;-74
2022/03/09 09:42:45;;;;;;;22.30;14.38;;;;;;;1.27;74.83;62130.66;5022634;28;20218;-74
2022/03/09 09:45:12;;;;;;;31.00;14.95;;;;;;;1.53;72.81;62159.88;5027279;28;20226;-75
2022/03/09 09:47:39;;;;;;;20.92;14.18;;;;;;;1.11;76.38;62112.25;5028393;28;20520;-75
2022/03/09 09:50:13;;;;;;;24.98;14.82;;;;;;;0.95;77.00;62093.84;5027753;28;20203;-75
2022/03/09 09:52:41;;;;;;;23.17;12.68;;;;;;;1.25;75.52;62129.13;5008252;28;20532;-74
2022/03/09 09:55:09;;;;;;;22.13;13.27;;;;;;;1.73;69.89;62175.38;5008421;28;20481;-75
2022/03/09 09:57:37;;;;;;;20.10;12.82;;;;;;;1.43;67.90;62145.09;5018604;28;20539;-75
2022/03/09 10:00:05;;;;;;;29.70;15.80;;;;;;;1.14;71.54;62115.34;5020278;28;20258;-75
2022/03/09 10:02:32;;;;;;;22.92;14.18;;;;;;;1.07;75.70;62111.19;5025846;28;20306;-74
2022/03/09 10:04:59;;;;;;;18.08;10.98;;;;;;;0.92;73.70;62095.78;5018388;28;20235;-76
2022/03/09 10:07:28;;;;;;;28.73;14.70;;;;;;;1.12;74.92;62113.28;5007892;28;20227;-74
2022/03/09 10:09:54;;;;;;;26.42;14.05;;;;;;;1.29;74.85;62130.22;5008013;28;20337;-75
2022/03/09 10:12:28;;;;;;;11.02;7.82;;;;;;;1.34;64.67;62137.84;5019373;28;20222;-75
2022/03/09 10:14:56;;;;;;;21.23;9.38;;;;;;;1.26;64.24;62127.66;5026909;28;20230;-74
2022/03/09 10:17:25;;;;;;;11.02;7.78;;;;;;;1.76;60.08;62180.97;5027953;28;20238;-74
2022/03/09 10:19:54;;;;;;;16.15;10.38;;;;;;;1.71;62.84;62173.81;5028161;28;20210;-74
2022/03/09 10:22:28;;;;;;;15.32;9.55;;;;;;;1.88;60.44;62196.28;5026427;28;20250;-75
2022/03/09 10:24:57;;;;;;;17.10;10.40;;;;;;;1.31;63.90;62130.28;5029705;28;20225;-75
2022/03/09 10:27:37;;;;;;;20.00;11.63;;;;;;;1.19;69.20;62123.50;5028407;28;20219;-75
2022/03/09 10:30:05;;;;;;;19.75;11.45;;;;;;;0.82;73.29;62085.03;5027162;28;20245;-74
2022/03/09 10:32:53;;;;;;;17.30;11.98;;;;;;;1.24;71.33;62125.09;5026595;28;20219;-74
2022/03/09 10:35:39;;;;;;;21.83;11.15;;;;;;;0.87;69.88;62092.66;5026527;28;20187;-75
2022/03/09 10:38:09;;;;;;;17.25;10.45;;;;;;;0.95;70.65;62096.38;5026880;28;20221;-74
2022/03/09 10:40:42;;;;;;;17.15;10.43;;;;;;;0.98;71.08;62098.94;5025071;28;20206;-74
2022/03/09 10:43:11;;;;;;;16.85;10.25;;;;;;;1.23;68.84;62126.56;5026945;28;20261;-75
2022/03/09 10:46:16;;;;;;;15.73;9.48;;;;;;;1.14;71.48;62110.31;5026505;28;20477;-77
2022/03/09 10:48:53;;;;;;;20.30;10.88;;;;;;;0.79;76.88;62079.97;5021505;28;20210;-75
2022/03/09 10:51:32;;;;;;;19.63;10.40;;;;;;;0.87;72.46;62090.16;5026942;28;20210;-75
2022/03/09 10:54:03;;;;;;;22.17;12.02;;;;;;;1.05;73.41;62104.09;5026220;28;20205;-76
2022/03/09 10:56:30;;;;;;;19.23;10.85;;;;;;;1.20;73.92;62124.00;5025938;28;20234;-75
2022/03/09 10:58:57;;;;;;;13.55;8.18;;;;;;;1.68;67.33;62170.75;5024479;28;20203;-75
2022/03/09 11:01:25;;;;;;;13.15;9.73;;;;;;;2.02;63.27;62205.16;5026437;28;20245;-77
2022/03/09 11:03:53;;;;;;;17.23;10.00;;;;;;;2.28;63.18;62231.84;5028701;28;20222;-76
2022/03/09 11:06:21;;;;;;;16.33;9.25;;;;;;;2.54;63.43;62260.56;5034018;28;20198;-77
2022/03/09 11:08:49;;;;;;;12.70;8.02;;;;;;;2.54;55.65;62258.03;5029414;28;20211;-77
2022/03/09 11:11:20;;;;;;;11.68;8.18;;;;;;;2.47;57.17;62255.88;5027698;28;20241;-77
2022/03/09 11:13:48;;;;;;;11.50;6.93;;;;;;;2.72;54.96;62274.00;5026592;28;20203;-77
2022/03/09 11:16:17;;;;;;;12.32;7.45;;;;;;;2.52;54.70;62255.97;5021854;28;20278;-78
2022/03/09 11:18:44;;;;;;;12.55;8.32;;;;;;;2.91;56.31;62301.06;5026161;28;20480;-76
2022/03/09 11:21:11;;;;;;;8.70;6.47;;;;;;;2.89;54.77;62299.53;5026467;28;20203;-77